sensor_id;sensor_type;location;lat;lon;timestamp;P1;durP1;ratioP1;P2;durP2;ratioP2
49153;SDS011;49455;52.252;9.124;2024-02-21T08:21:39;21.98;;;11.43;;
49153;SDS011;49455;52.252;9.124;2024-02-21T08:26:42;23.45;;;11.57;;
49153;SDS011;49455;52.252;9.124;2024-02-21T08:31:43;27.38;;;11.60;;
49153;SDS011;49455;52.252;9.124;2024-02-21T08:36:44;25.15;;;11.38;;
49153;SDS011;49455;52.252;9.124;2024-02-21T08:41:44;25.25;;;11.45;;
49153;SDS011;49455;52.252;9.124;2024-02-21T08:46:45;24.58;;;10.90;;
49153;SDS011;49455;52.252;9.124;2024-02-21T08:51:45;21.05;;;10.75;;
49153;SDS011;49455;52.252;9.124;2024-02-21T08:56:46;23.73;;;11.50;;
49153;SDS011;49455;52.252;9.124;2024-02-21T09:01:46;21.80;;;10.02;;
49153;SDS011;49455;52.252;9.124;2024-02-21T09:06:47;22.50;;;9.82;;
49153;SDS011;49455;52.252;9.124;2024-02-21T09:11:47;19.35;;;8.85;;
49153;SDS011;49455;52.252;9.124;2024-02-21T09:16:48;18.58;;;8.50;;
49153;SDS011;49455;52.252;9.124;2024-02-21T09:21:48;19.88;;;8.50;;
49153;SDS011;49455;52.252;9.124;2024-02-21T09:26:49;20.05;;;9.10;;
49153;SDS011;49455;52.252;9.124;2024-02-21T09:31:49;17.05;;;8.23;;
49153;SDS011;49455;52.252;9.124;2024-02-21T09:36:50;22.15;;;8.82;;
49153;SDS011;49455;52.252;9.124;2024-02-21T09:41:53;23.38;;;8.60;;
49153;SDS011;49455;52.252;9.124;2024-02-21T09:47:02;19.08;;;8.93;;
49153;SDS011;49455;52.252;9.124;2024-02-21T09:52:04;14.82;;;7.55;;
49153;SDS011;49455;52.252;9.124;2024-02-21T09:57:06;16.80;;;7.30;;
49153;SDS011;49455;52.252;9.124;2024-02-21T10:02:06;18.48;;;7.68;;
49153;SDS011;49455;52.252;9.124;2024-02-21T10:07:07;13.50;;;6.38;;
49153;SDS011;49455;52.252;9.124;2024-02-21T10:12:08;14.30;;;6.30;;
49153;SDS011;49455;52.252;9.124;2024-02-21T10:17:15;18.17;;;7.00;;
49153;SDS011;49455;52.252;9.124;2024-02-21T10:22:17;12.63;;;6.80;;
49153;SDS011;49455;52.252;9.124;2024-02-21T10:27:17;17.02;;;6.78;;
49153;SDS011;49455;52.252;9.124;2024-02-21T10:32:18;12.77;;;5.50;;
49153;SDS011;49455;52.252;9.124;2024-02-21T10:37:18;11.70;;;5.72;;
49153;SDS011;49455;52.252;9.124;2024-02-21T10:42:23;11.85;;;5.30;;
49153;SDS011;49455;52.252;9.124;2024-02-21T10:47:29;11.10;;;4.90;;
49153;SDS011;49455;52.252;9.124;2024-02-21T10:52:48;11.85;;;5.00;;
49153;SDS011;49455;52.252;9.124;2024-02-21T10:57:56;10.85;;;4.72;;
49153;SDS011;49455;52.252;9.124;2024-02-21T11:02:58;11.60;;;4.13;;
49153;SDS011;49455;52.252;9.124;2024-02-21T11:07:59;8.68;;;3.85;;
49153;SDS011;49455;52.252;9.124;2024-02-21T11:13:09;8.48;;;4.32;;
49153;SDS011;49455;52.252;9.124;2024-02-21T11:18:22;7.72;;;3.72;;
49153;SDS011;49455;52.252;9.124;2024-02-21T11:23:41;10.73;;;4.40;;
49153;SDS011;49455;52.252;9.124;2024-02-21T11:28:41;9.65;;;4.88;;
49153;SDS011;49455;52.252;9.124;2024-02-21T11:33:42;8.80;;;4.47;;
49153;SDS011;49455;52.252;9.124;2024-02-21T11:38:43;8.57;;;4.80;;
49153;SDS011;49455;52.252;9.124;2024-02-21T11:43:43;11.25;;;5.90;;
49153;SDS011;49455;52.252;9.124;2024-02-21T11:48:44;12.77;;;6.07;;
49153;SDS011;49455;52.252;9.124;2024-02-21T11:53:44;17.75;;;7.22;;
49153;SDS011;49455;52.252;9.124;2024-02-21T11:58:45;13.77;;;7.50;;
49153;SDS011;49455;52.252;9.124;2024-02-21T12:03:46;16.05;;;7.55;;
49153;SDS011;49455;52.252;9.124;2024-02-21T12:08:48;16.77;;;7.60;;
49153;SDS011;49455;52.252;9.124;2024-02-21T12:14:01;18.92;;;8.68;;
49153;SDS011;49455;52.252;9.124;2024-02-21T12:19:05;17.45;;;8.73;;
49153;SDS011;49455;52.252;9.124;2024-02-21T12:24:17;21.88;;;9.35;;
49153;SDS011;49455;52.252;9.124;2024-02-21T12:29:25;17.30;;;9.73;;
49153;SDS011;49455;52.252;9.124;2024-02-21T12:34:25;18.52;;;9.23;;
49153;SDS011;49455;52.252;9.124;2024-02-21T12:39:26;18.17;;;8.57;;
49153;SDS011;49455;52.252;9.124;2024-02-21T12:44:26;17.27;;;8.57;;
49153;SDS011;49455;52.252;9.124;2024-02-21T12:49:30;16.38;;;8.40;;
49153;SDS011;49455;52.252;9.124;2024-02-21T12:54:30;19.08;;;7.90;;
49153;SDS011;49455;52.252;9.124;2024-02-21T12:59:31;17.08;;;7.90;;
49153;SDS011;49455;52.252;9.124;2024-02-21T13:04:31;16.02;;;6.78;;
49153;SDS011;49455;52.252;9.124;2024-02-21T13:09:32;14.07;;;6.57;;
49153;SDS011;49455;52.252;9.124;2024-02-21T13:14:32;12.05;;;5.82;;
49153;SDS011;49455;52.252;9.124;2024-02-21T13:19:32;9.80;;;5.03;;
49153;SDS011;49455;52.252;9.124;2024-02-21T13:24:33;13.57;;;5.70;;
49153;SDS011;49455;52.252;9.124;2024-02-21T13:29:33;11.45;;;4.57;;
49153;SDS011;49455;52.252;9.124;2024-02-21T13:34:34;8.85;;;4.65;;
49153;SDS011;49455;52.252;9.124;2024-02-21T13:39:34;7.70;;;4.30;;
49153;SDS011;49455;52.252;9.124;2024-02-21T13:44:36;10.90;;;4.07;;
49153;SDS011;49455;52.252;9.124;2024-02-21T13:49:36;10.32;;;3.95;;
49153;SDS011;49455;52.252;9.124;2024-02-21T13:54:37;9.35;;;4.97;;
49153;SDS011;49455;52.252;9.124;2024-02-21T13:59:37;13.15;;;6.30;;
49153;SDS011;49455;52.252;9.124;2024-02-21T14:04:38;10.65;;;4.70;;
49153;SDS011;49455;52.252;9.124;2024-02-21T14:09:38;11.52;;;4.68;;
49153;SDS011;49455;52.252;9.124;2024-02-21T14:14:39;9.80;;;4.03;;
49153;SDS011;49455;52.252;9.124;2024-02-21T14:19:39;10.45;;;4.45;;
49153;SDS011;49455;52.252;9.124;2024-02-21T14:24:40;8.77;;;4.00;;
49153;SDS011;49455;52.252;9.124;2024-02-21T14:29:40;12.20;;;4.05;;
49153;SDS011;49455;52.252;9.124;2024-02-21T14:34:41;13.52;;;3.97;;
49153;SDS011;49455;52.252;9.124;2024-02-21T14:39:41;10.15;;;3.70;;
49153;SDS011;49455;52.252;9.124;2024-02-21T14:44:42;8.90;;;3.67;;
49153;SDS011;49455;52.252;9.124;2024-02-21T14:49:42;14.65;;;5.78;;
49153;SDS011;49455;52.252;9.124;2024-02-21T14:54:43;10.40;;;3.70;;
49153;SDS011;49455;52.252;9.124;2024-02-21T14:59:43;8.35;;;3.90;;
49153;SDS011;49455;52.252;9.124;2024-02-21T15:04:44;7.88;;;4.00;;
49153;SDS011;49455;52.252;9.124;2024-02-21T15:09:44;9.60;;;4.10;;
49153;SDS011;49455;52.252;9.124;2024-02-21T15:14:45;9.05;;;4.10;;
49153;SDS011;49455;52.252;9.124;2024-02-21T15:19:45;12.90;;;4.00;;
49153;SDS011;49455;52.252;9.124;2024-02-21T15:24:46;12.68;;;4.13;;
49153;SDS011;49455;52.252;9.124;2024-02-21T15:29:46;10.48;;;4.20;;
49153;SDS011;49455;52.252;9.124;2024-02-21T15:34:47;12.55;;;4.40;;
49153;SDS011;49455;52.252;9.124;2024-02-21T15:39:47;12.43;;;3.90;;
49153;SDS011;49455;52.252;9.124;2024-02-21T15:44:48;10.15;;;4.25;;
49153;SDS011;49455;52.252;9.124;2024-02-21T15:49:49;11.45;;;4.50;;
49153;SDS011;49455;52.252;9.124;2024-02-21T15:54:50;10.45;;;4.30;;
49153;SDS011;49455;52.252;9.124;2024-02-21T15:59:50;11.63;;;4.35;;
49153;SDS011;49455;52.252;9.124;2024-02-21T16:04:50;13.10;;;4.68;;
49153;SDS011;49455;52.252;9.124;2024-02-21T16:09:51;11.82;;;4.35;;
49153;SDS011;49455;52.252;9.124;2024-02-21T16:14:52;13.38;;;4.32;;
49153;SDS011;49455;52.252;9.124;2024-02-21T16:19:52;9.55;;;4.30;;
49153;SDS011;49455;52.252;9.124;2024-02-21T16:24:53;14.98;;;5.32;;
49153;SDS011;49455;52.252;9.124;2024-02-21T16:29:56;15.32;;;4.95;;
49153;SDS011;49455;52.252;9.124;2024-02-21T16:34:57;8.52;;;4.45;;
49153;SDS011;49455;52.252;9.124;2024-02-21T16:39:57;10.85;;;4.60;;
49153;SDS011;49455;52.252;9.124;2024-02-21T16:44:58;13.40;;;4.22;;
49153;SDS011;49455;52.252;9.124;2024-02-21T16:49:58;12.98;;;4.35;;
49153;SDS011;49455;52.252;9.124;2024-02-21T16:54:59;11.02;;;3.60;;
49153;SDS011;49455;52.252;9.124;2024-02-21T16:59:59;9.82;;;3.75;;
49153;SDS011;49455;52.252;9.124;2024-02-21T17:05:00;11.20;;;4.40;;
49153;SDS011;49455;52.252;9.124;2024-02-21T17:10:01;13.23;;;4.18;;
49153;SDS011;49455;52.252;9.124;2024-02-21T17:15:05;12.77;;;3.90;;
49153;SDS011;49455;52.252;9.124;2024-02-21T17:20:06;11.38;;;4.03;;
49153;SDS011;49455;52.252;9.124;2024-02-21T17:25:07;10.30;;;3.95;;
49153;SDS011;49455;52.252;9.124;2024-02-21T17:30:08;8.90;;;3.65;;
49153;SDS011;49455;52.252;9.124;2024-02-21T17:35:09;9.55;;;3.92;;
49153;SDS011;49455;52.252;9.124;2024-02-21T17:40:09;10.05;;;3.60;;
49153;SDS011;49455;52.252;9.124;2024-02-21T17:45:10;11.93;;;3.70;;
49153;SDS011;49455;52.252;9.124;2024-02-21T17:50:10;7.55;;;3.42;;
49153;SDS011;49455;52.252;9.124;2024-02-21T17:55:11;10.50;;;4.00;;
49153;SDS011;49455;52.252;9.124;2024-02-21T18:00:12;9.50;;;3.38;;
49153;SDS011;49455;52.252;9.124;2024-02-21T18:05:13;12.50;;;3.92;;
49153;SDS011;49455;52.252;9.124;2024-02-21T18:10:13;9.50;;;3.63;;
49153;SDS011;49455;52.252;9.124;2024-02-21T18:15:14;11.98;;;3.65;;
49153;SDS011;49455;52.252;9.124;2024-02-21T18:20:15;10.48;;;3.38;;
49153;SDS011;49455;52.252;9.124;2024-02-21T18:25:15;8.98;;;3.25;;
49153;SDS011;49455;52.252;9.124;2024-02-21T18:30:16;9.80;;;3.30;;
49153;SDS011;49455;52.252;9.124;2024-02-21T18:35:17;12.02;;;3.55;;
49153;SDS011;49455;52.252;9.124;2024-02-21T18:40:18;12.35;;;4.40;;
49153;SDS011;49455;52.252;9.124;2024-02-21T18:45:18;9.70;;;3.83;;
49153;SDS011;49455;52.252;9.124;2024-02-21T18:50:19;7.95;;;3.40;;
49153;SDS011;49455;52.252;9.124;2024-02-21T18:55:20;10.88;;;3.67;;
49153;SDS011;49455;52.252;9.124;2024-02-21T19:00:20;8.27;;;3.45;;
49153;SDS011;49455;52.252;9.124;2024-02-21T19:05:21;9.15;;;3.47;;
49153;SDS011;49455;52.252;9.124;2024-02-21T19:10:22;7.38;;;3.33;;
49153;SDS011;49455;52.252;9.124;2024-02-21T19:15:25;8.02;;;3.33;;
49153;SDS011;49455;52.252;9.124;2024-02-21T19:20:25;8.93;;;3.67;;
49153;SDS011;49455;52.252;9.124;2024-02-21T19:25:26;7.40;;;3.00;;
49153;SDS011;49455;52.252;9.124;2024-02-21T19:30:29;10.40;;;3.53;;
49153;SDS011;49455;52.252;9.124;2024-02-21T19:35:30;9.15;;;3.67;;
49153;SDS011;49455;52.252;9.124;2024-02-21T19:40:30;9.25;;;3.70;;
49153;SDS011;49455;52.252;9.124;2024-02-21T19:45:31;8.85;;;3.75;;
49153;SDS011;49455;52.252;9.124;2024-02-21T19:50:32;10.18;;;3.78;;
49153;SDS011;49455;52.252;9.124;2024-02-21T19:55:33;6.60;;;3.63;;
49153;SDS011;49455;52.252;9.124;2024-02-21T20:00:33;6.28;;;3.40;;
49153;SDS011;49455;52.252;9.124;2024-02-21T20:05:34;12.40;;;4.50;;
49153;SDS011;49455;52.252;9.124;2024-02-21T20:10:35;12.02;;;4.57;;
49153;SDS011;49455;52.252;9.124;2024-02-21T20:15:35;7.55;;;4.18;;
49153;SDS011;49455;52.252;9.124;2024-02-21T20:20:36;9.13;;;4.10;;
49153;SDS011;49455;52.252;9.124;2024-02-21T20:25:36;8.75;;;4.60;;
49153;SDS011;49455;52.252;9.124;2024-02-21T20:30:37;11.77;;;4.72;;
49153;SDS011;49455;52.252;9.124;2024-02-21T20:35:38;11.70;;;4.40;;
49153;SDS011;49455;52.252;9.124;2024-02-21T20:40:38;12.07;;;4.80;;
49153;SDS011;49455;52.252;9.124;2024-02-21T20:45:39;11.32;;;4.93;;
49153;SDS011;49455;52.252;9.124;2024-02-21T20:50:39;11.77;;;4.00;;
49153;SDS011;49455;52.252;9.124;2024-02-21T20:55:40;10.63;;;4.53;;
49153;SDS011;49455;52.252;9.124;2024-02-21T21:00:43;8.02;;;4.25;;
49153;SDS011;49455;52.252;9.124;2024-02-21T21:05:44;8.02;;;3.90;;
49153;SDS011;49455;52.252;9.124;2024-02-21T21:10:47;16.33;;;4.45;;
49153;SDS011;49455;52.252;9.124;2024-02-21T21:15:48;10.75;;;3.97;;
49153;SDS011;49455;52.252;9.124;2024-02-21T21:20:48;9.85;;;3.90;;
49153;SDS011;49455;52.252;9.124;2024-02-21T21:31:42;7.28;;;3.38;;
49153;SDS011;49455;52.252;9.124;2024-02-21T21:36:42;10.05;;;3.67;;
49153;SDS011;49455;52.252;9.124;2024-02-21T21:41:43;9.35;;;4.03;;
49153;SDS011;49455;52.252;9.124;2024-02-21T21:46:43;10.90;;;4.22;;
49153;SDS011;49455;52.252;9.124;2024-02-21T21:51:51;9.52;;;4.03;;
49153;SDS011;49455;52.252;9.124;2024-02-21T21:57:19;9.85;;;4.40;;
49153;SDS011;49455;52.252;9.124;2024-02-21T22:02:23;7.82;;;4.00;;
49153;SDS011;49455;52.252;9.124;2024-02-21T22:07:27;9.00;;;3.92;;
49153;SDS011;49455;52.252;9.124;2024-02-21T22:12:27;10.25;;;3.92;;
49153;SDS011;49455;52.252;9.124;2024-02-21T22:18:00;7.20;;;3.45;;
49153;SDS011;49455;52.252;9.124;2024-02-21T22:23:42;8.18;;;3.60;;
49153;SDS011;49455;52.252;9.124;2024-02-21T22:28:24;9.27;;;3.72;;
49153;SDS011;49455;52.252;9.124;2024-02-21T22:38:57;8.20;;;3.70;;
49153;SDS011;49455;52.252;9.124;2024-02-21T22:44:03;7.38;;;3.60;;
49153;SDS011;49455;52.252;9.124;2024-02-21T22:49:03;8.70;;;3.60;;
49153;SDS011;49455;52.252;9.124;2024-02-21T22:54:04;9.23;;;3.25;;
